sensor_id;sensor_type;location;lat;lon;timestamp;temperature;humidity
18894;DHT22;9579;49.488;8.226;2023-04-24T04:09:23;11.40;99.90
18894;DHT22;9579;49.488;8.226;2023-04-24T04:12:10;11.40;99.90
18894;DHT22;9579;49.488;8.226;2023-04-24T04:14:57;11.40;99.90
18894;DHT22;9579;49.488;8.226;2023-04-24T04:17:44;11.40;99.90
18894;DHT22;9579;49.488;8.226;2023-04-24T04:20:31;11.40;99.90
18894;DHT22;9579;49.488;8.226;2023-04-24T04:23:18;11.30;99.90
18894;DHT22;9579;49.488;8.226;2023-04-24T04:26:07;11.30;99.90
18894;DHT22;9579;49.488;8.226;2023-04-24T04:28:54;11.30;99.90
18894;DHT22;9579;49.488;8.226;2023-04-24T04:31:41;11.30;99.90
18894;DHT22;9579;49.488;8.226;2023-04-24T04:34:28;11.30;99.90
18894;DHT22;9579;49.488;8.226;2023-04-24T04:37:17;11.30;99.90
18894;DHT22;9579;49.488;8.226;2023-04-24T04:40:04;11.30;99.90
18894;DHT22;9579;49.488;8.226;2023-04-24T04:42:54;11.40;99.90
18894;DHT22;9579;49.488;8.226;2023-04-24T04:45:42;11.40;99.90
18894;DHT22;9579;49.488;8.226;2023-04-24T04:48:30;11.40;99.90
18894;DHT22;9579;49.488;8.226;2023-04-24T04:51:18;11.40;99.90
18894;DHT22;9579;49.488;8.226;2023-04-24T04:54:05;11.50;99.90
18894;DHT22;9579;49.488;8.226;2023-04-24T04:56:52;11.50;99.90
18894;DHT22;9579;49.488;8.226;2023-04-24T04:59:41;11.60;99.90
18894;DHT22;9579;49.488;8.226;2023-04-24T05:02:28;11.80;99.90
18894;DHT22;9579;49.488;8.226;2023-04-24T05:05:18;11.80;99.90
18894;DHT22;9579;49.488;8.226;2023-04-24T05:08:05;11.90;99.90
18894;DHT22;9579;49.488;8.226;2023-04-24T05:10:52;11.80;99.90
18894;DHT22;9579;49.488;8.226;2023-04-24T05:13:39;11.90;99.90
18894;DHT22;9579;49.488;8.226;2023-04-24T05:16:27;11.90;99.90
18894;DHT22;9579;49.488;8.226;2023-04-24T05:19:14;11.80;99.90
18894;DHT22;9579;49.488;8.226;2023-04-24T05:22:01;11.80;99.90
18894;DHT22;9579;49.488;8.226;2023-04-24T05:24:49;11.80;99.90
18894;DHT22;9579;49.488;8.226;2023-04-24T05:27:37;11.80;99.90
18894;DHT22;9579;49.488;8.226;2023-04-24T05:30:24;11.90;99.90
18894;DHT22;9579;49.488;8.226;2023-04-24T05:33:12;12.10;99.90
18894;DHT22;9579;49.488;8.226;2023-04-24T05:35:59;12.30;99.90
18894;DHT22;9579;49.488;8.226;2023-04-24T05:38:46;12.40;99.90
18894;DHT22;9579;49.488;8.226;2023-04-24T05:41:33;12.50;99.90
18894;DHT22;9579;49.488;8.226;2023-04-24T05:44:20;12.50;99.90
18894;DHT22;9579;49.488;8.226;2023-04-24T05:47:07;12.50;99.90
18894;DHT22;9579;49.488;8.226;2023-04-24T05:49:56;12.50;99.90
18894;DHT22;9579;49.488;8.226;2023-04-24T05:52:43;12.50;99.90
18894;DHT22;9579;49.488;8.226;2023-04-24T05:55:30;12.60;99.90
18894;DHT22;9579;49.488;8.226;2023-04-24T05:58:17;12.60;99.90
18894;DHT22;9579;49.488;8.226;2023-04-24T06:01:04;12.70;99.90
18894;DHT22;9579;49.488;8.226;2023-04-24T06:03:51;12.70;99.90
18894;DHT22;9579;49.488;8.226;2023-04-24T06:06:40;12.70;99.90
18894;DHT22;9579;49.488;8.226;2023-04-24T06:09:27;12.70;99.90
18894;DHT22;9579;49.488;8.226;2023-04-24T06:12:14;12.70;99.90
18894;DHT22;9579;49.488;8.226;2023-04-24T06:15:03;12.70;99.90
18894;DHT22;9579;49.488;8.226;2023-04-24T06:17:51;12.60;99.90
18894;DHT22;9579;49.488;8.226;2023-04-24T06:20:38;12.60;99.90
18894;DHT22;9579;49.488;8.226;2023-04-24T06:23:27;12.50;99.90
18894;DHT22;9579;49.488;8.226;2023-04-24T06:26:25;12.40;99.90
18894;DHT22;9579;49.488;8.226;2023-04-24T06:29:12;12.30;99.90
18894;DHT22;9579;49.488;8.226;2023-04-24T06:31:59;12.20;99.90
18894;DHT22;9579;49.488;8.226;2023-04-24T06:34:46;12.10;99.90
18894;DHT22;9579;49.488;8.226;2023-04-24T06:37:33;12.10;99.90
18894;DHT22;9579;49.488;8.226;2023-04-24T06:40:22;12.10;99.90
18894;DHT22;9579;49.488;8.226;2023-04-24T06:43:09;12.10;99.90
18894;DHT22;9579;49.488;8.226;2023-04-24T06:45:57;12.20;99.90
18894;DHT22;9579;49.488;8.226;2023-04-24T06:48:44;12.60;99.90
18894;DHT22;9579;49.488;8.226;2023-04-24T06:51:31;13.10;99.90
18894;DHT22;9579;49.488;8.226;2023-04-24T06:54:19;13.50;99.90
18894;DHT22;9579;49.488;8.226;2023-04-24T06:57:08;13.80;99.90
18894;DHT22;9579;49.488;8.226;2023-04-24T06:59:56;14.00;99.90
18894;DHT22;9579;49.488;8.226;2023-04-24T07:02:43;14.00;99.90
18894;DHT22;9579;49.488;8.226;2023-04-24T07:05:30;14.10;99.90
18894;DHT22;9579;49.488;8.226;2023-04-24T07:08:19;14.00;99.30
18894;DHT22;9579;49.488;8.226;2023-04-24T07:11:07;13.90;99.90
18894;DHT22;9579;49.488;8.226;2023-04-24T07:13:56;14.00;99.70
18894;DHT22;9579;49.488;8.226;2023-04-24T07:16:43;14.00;99.90
18894;DHT22;9579;49.488;8.226;2023-04-24T07:19:31;14.20;98.90
18894;DHT22;9579;49.488;8.226;2023-04-24T07:22:18;14.40;99.00
18894;DHT22;9579;49.488;8.226;2023-04-24T07:25:05;14.40;98.30
18894;DHT22;9579;49.488;8.226;2023-04-24T07:27:53;14.60;98.10
18894;DHT22;9579;49.488;8.226;2023-04-24T07:30:41;14.40;97.90
18894;DHT22;9579;49.488;8.226;2023-04-24T07:33:28;14.10;97.50
18894;DHT22;9579;49.488;8.226;2023-04-24T07:36:15;13.70;98.00
18894;DHT22;9579;49.488;8.226;2023-04-24T07:39:04;13.80;98.10
18894;DHT22;9579;49.488;8.226;2023-04-24T07:41:52;14.00;96.90
18894;DHT22;9579;49.488;8.226;2023-04-24T07:44:39;14.00;96.90
18894;DHT22;9579;49.488;8.226;2023-04-24T07:47:27;14.00;97.00
18894;DHT22;9579;49.488;8.226;2023-04-24T07:50:14;14.10;96.50
18894;DHT22;9579;49.488;8.226;2023-04-24T07:53:01;14.20;96.70
18894;DHT22;9579;49.488;8.226;2023-04-24T07:55:50;14.40;96.90
18894;DHT22;9579;49.488;8.226;2023-04-24T07:58:37;14.40;95.70
18894;DHT22;9579;49.488;8.226;2023-04-24T08:01:24;14.30;95.40
18894;DHT22;9579;49.488;8.226;2023-04-24T08:04:13;14.20;95.10
18894;DHT22;9579;49.488;8.226;2023-04-24T08:07:00;14.00;95.30
18894;DHT22;9579;49.488;8.226;2023-04-24T08:09:47;13.80;95.60
18894;DHT22;9579;49.488;8.226;2023-04-24T08:12:34;13.50;96.00
18894;DHT22;9579;49.488;8.226;2023-04-24T08:15:21;13.40;96.30
18894;DHT22;9579;49.488;8.226;2023-04-24T08:18:08;13.50;97.00
18894;DHT22;9579;49.488;8.226;2023-04-24T08:20:58;13.70;97.20
18894;DHT22;9579;49.488;8.226;2023-04-24T08:23:47;13.70;96.00
18894;DHT22;9579;49.488;8.226;2023-04-24T08:26:34;13.50;95.50
18894;DHT22;9579;49.488;8.226;2023-04-24T08:29:21;13.40;96.20
18894;DHT22;9579;49.488;8.226;2023-04-24T08:32:08;13.40;96.80
18894;DHT22;9579;49.488;8.226;2023-04-24T08:34:55;13.50;96.40
18894;DHT22;9579;49.488;8.226;2023-04-24T08:37:44;13.50;96.50
18894;DHT22;9579;49.488;8.226;2023-04-24T08:40:34;13.60;96.40
18894;DHT22;9579;49.488;8.226;2023-04-24T08:43:21;13.50;96.30
18894;DHT22;9579;49.488;8.226;2023-04-24T08:46:09;13.40;96.10
18894;DHT22;9579;49.488;8.226;2023-04-24T08:48:57;13.30;96.60
18894;DHT22;9579;49.488;8.226;2023-04-24T08:51:45;13.30;96.60
18894;DHT22;9579;49.488;8.226;2023-04-24T08:54:35;13.40;97.30
18894;DHT22;9579;49.488;8.226;2023-04-24T08:57:25;13.30;96.80
18894;DHT22;9579;49.488;8.226;2023-04-24T09:00:13;13.40;97.20
18894;DHT22;9579;49.488;8.226;2023-04-24T09:03:00;13.50;96.70
18894;DHT22;9579;49.488;8.226;2023-04-24T09:05:49;13.70;96.40
18894;DHT22;9579;49.488;8.226;2023-04-24T09:08:36;13.90;96.30
18894;DHT22;9579;49.488;8.226;2023-04-24T09:11:26;14.00;96.00
18894;DHT22;9579;49.488;8.226;2023-04-24T09:14:14;14.40;96.00
18894;DHT22;9579;49.488;8.226;2023-04-24T09:17:01;14.80;96.50
18894;DHT22;9579;49.488;8.226;2023-04-24T09:19:48;14.90;96.10
18894;DHT22;9579;49.488;8.226;2023-04-24T09:22:35;15.00;95.00
18894;DHT22;9579;49.488;8.226;2023-04-24T09:25:23;15.00;95.00
18894;DHT22;9579;49.488;8.226;2023-04-24T09:28:16;14.90;93.90
18894;DHT22;9579;49.488;8.226;2023-04-24T09:31:08;14.70;94.00
18894;DHT22;9579;49.488;8.226;2023-04-24T09:33:57;14.60;94.00
18894;DHT22;9579;49.488;8.226;2023-04-24T09:36:44;14.30;94.90
18894;DHT22;9579;49.488;8.226;2023-04-24T09:39:31;14.40;95.00
18894;DHT22;9579;49.488;8.226;2023-04-24T09:42:18;14.40;94.70
18894;DHT22;9579;49.488;8.226;2023-04-24T09:45:10;14.50;95.00
18894;DHT22;9579;49.488;8.226;2023-04-24T09:47:58;14.80;95.00
18894;DHT22;9579;49.488;8.226;2023-04-24T09:50:46;14.90;94.90
18894;DHT22;9579;49.488;8.226;2023-04-24T09:53:33;14.90;94.50
18894;DHT22;9579;49.488;8.226;2023-04-24T09:56:20;15.00;94.10
18894;DHT22;9579;49.488;8.226;2023-04-24T09:59:07;14.90;94.00
18894;DHT22;9579;49.488;8.226;2023-04-24T10:01:56;14.50;94.60
18894;DHT22;9579;49.488;8.226;2023-04-24T10:04:54;14.50;95.20
18894;DHT22;9579;49.488;8.226;2023-04-24T10:07:43;14.90;95.30
18894;DHT22;9579;49.488;8.226;2023-04-24T10:10:31;15.40;95.10
18894;DHT22;9579;49.488;8.226;2023-04-24T10:17:03;16.00;93.90
18894;DHT22;9579;49.488;8.226;2023-04-24T10:19:51;15.80;93.40
18894;DHT22;9579;49.488;8.226;2023-04-24T10:22:38;16.00;93.50
18894;DHT22;9579;49.488;8.226;2023-04-24T10:25:28;16.10;93.60
18894;DHT22;9579;49.488;8.226;2023-04-24T10:58:41;15.80;93.30
18894;DHT22;9579;49.488;8.226;2023-04-24T11:01:31;16.40;93.40
18894;DHT22;9579;49.488;8.226;2023-04-24T11:20:48;16.40;92.30
18894;DHT22;9579;49.488;8.226;2023-04-24T11:23:36;16.40;92.00
18894;DHT22;9579;49.488;8.226;2023-04-24T11:30:05;16.60;91.00
18894;DHT22;9579;49.488;8.226;2023-04-24T11:33:02;17.10;91.10
18894;DHT22;9579;49.488;8.226;2023-04-24T11:35:51;17.00;90.50
18894;DHT22;9579;49.488;8.226;2023-04-24T11:38:43;16.90;90.70
18894;DHT22;9579;49.488;8.226;2023-04-24T11:41:32;17.20;90.30
18894;DHT22;9579;49.488;8.226;2023-04-24T11:44:21;16.60;90.40
18894;DHT22;9579;49.488;8.226;2023-04-24T11:57:19;16.50;91.10
18894;DHT22;9579;49.488;8.226;2023-04-24T12:00:24;16.90;91.40
18894;DHT22;9579;49.488;8.226;2023-04-24T12:03:13;17.20;91.00
18894;DHT22;9579;49.488;8.226;2023-04-24T12:06:10;17.70;90.80
18894;DHT22;9579;49.488;8.226;2023-04-24T12:15:35;17.20;90.20
18894;DHT22;9579;49.488;8.226;2023-04-24T12:18:44;17.30;89.90
18894;DHT22;9579;49.488;8.226;2023-04-24T12:21:32;17.40;89.80
18894;DHT22;9579;49.488;8.226;2023-04-24T12:24:19;17.40;90.40
18894;DHT22;9579;49.488;8.226;2023-04-24T12:27:06;17.70;89.60
18894;DHT22;9579;49.488;8.226;2023-04-24T12:29:56;18.00;89.90
18894;DHT22;9579;49.488;8.226;2023-04-24T12:32:47;18.60;90.00
18894;DHT22;9579;49.488;8.226;2023-04-24T12:35:35;18.50;87.60
18894;DHT22;9579;49.488;8.226;2023-04-24T12:38:23;18.50;88.80
18894;DHT22;9579;49.488;8.226;2023-04-24T12:41:12;18.70;86.50
18894;DHT22;9579;49.488;8.226;2023-04-24T12:43:59;18.90;86.50
18894;DHT22;9579;49.488;8.226;2023-04-24T12:46:46;19.10;86.60
18894;DHT22;9579;49.488;8.226;2023-04-24T12:49:35;19.20;85.60
18894;DHT22;9579;49.488;8.226;2023-04-24T12:52:22;19.20;83.50
18894;DHT22;9579;49.488;8.226;2023-04-24T12:55:09;19.20;85.30
18894;DHT22;9579;49.488;8.226;2023-04-24T12:57:57;18.90;84.40
18894;DHT22;9579;49.488;8.226;2023-04-24T13:00:44;18.90;85.80
18894;DHT22;9579;49.488;8.226;2023-04-24T13:03:31;19.40;85.70
18894;DHT22;9579;49.488;8.226;2023-04-24T13:06:20;19.80;85.20
18894;DHT22;9579;49.488;8.226;2023-04-24T13:09:07;20.00;83.00
18894;DHT22;9579;49.488;8.226;2023-04-24T13:11:55;20.20;80.60
18894;DHT22;9579;49.488;8.226;2023-04-24T13:14:42;20.60;80.10
18894;DHT22;9579;49.488;8.226;2023-04-24T13:17:30;20.50;80.60
18894;DHT22;9579;49.488;8.226;2023-04-24T13:20:17;20.40;79.20
18894;DHT22;9579;49.488;8.226;2023-04-24T13:23:06;20.50;80.00
18894;DHT22;9579;49.488;8.226;2023-04-24T13:25:53;20.20;77.80
18894;DHT22;9579;49.488;8.226;2023-04-24T13:28:41;19.80;79.00
18894;DHT22;9579;49.488;8.226;2023-04-24T13:31:28;19.40;77.70
18894;DHT22;9579;49.488;8.226;2023-04-24T13:34:15;19.00;78.30
18894;DHT22;9579;49.488;8.226;2023-04-24T13:37:03;18.60;79.60
18894;DHT22;9579;49.488;8.226;2023-04-24T13:39:52;18.30;81.20
18894;DHT22;9579;49.488;8.226;2023-04-24T13:42:39;18.00;81.00
18894;DHT22;9579;49.488;8.226;2023-04-24T13:45:27;17.80;81.50
18894;DHT22;9579;49.488;8.226;2023-04-24T13:48:14;17.50;81.80
18894;DHT22;9579;49.488;8.226;2023-04-24T13:51:01;17.30;83.20
18894;DHT22;9579;49.488;8.226;2023-04-24T13:53:48;17.20;85.20
18894;DHT22;9579;49.488;8.226;2023-04-24T13:56:37;17.10;84.50
18894;DHT22;9579;49.488;8.226;2023-04-24T13:59:25;17.00;85.10
18894;DHT22;9579;49.488;8.226;2023-04-24T14:02:12;16.90;83.80
18894;DHT22;9579;49.488;8.226;2023-04-24T14:08:17;16.80;86.00
18894;DHT22;9579;49.488;8.226;2023-04-24T14:11:04;17.40;85.00
18894;DHT22;9579;49.488;8.226;2023-04-24T14:13:53;17.40;84.30
18894;DHT22;9579;49.488;8.226;2023-04-24T14:16:41;17.60;85.10
18894;DHT22;9579;49.488;8.226;2023-04-24T14:19:28;18.30;84.90
18894;DHT22;9579;49.488;8.226;2023-04-24T14:22:15;19.10;84.10
18894;DHT22;9579;49.488;8.226;2023-04-24T14:25:03;19.80;80.20
18894;DHT22;9579;49.488;8.226;2023-04-24T14:27:51;20.20;80.20
18894;DHT22;9579;49.488;8.226;2023-04-24T14:30:39;20.40;79.80
18894;DHT22;9579;49.488;8.226;2023-04-24T14:33:26;20.40;81.10
18894;DHT22;9579;49.488;8.226;2023-04-24T14:36:13;19.80;82.10
18894;DHT22;9579;49.488;8.226;2023-04-24T14:39:00;19.70;81.90
18894;DHT22;9579;49.488;8.226;2023-04-24T14:41:51;19.30;83.80
18894;DHT22;9579;49.488;8.226;2023-04-24T14:44:38;18.80;85.80
18894;DHT22;9579;49.488;8.226;2023-04-24T14:47:26;18.40;86.40
18894;DHT22;9579;49.488;8.226;2023-04-24T14:50:15;18.10;88.60
18894;DHT22;9579;49.488;8.226;2023-04-24T14:53:02;17.70;89.10
18894;DHT22;9579;49.488;8.226;2023-04-24T14:55:49;17.50;90.80
18894;DHT22;9579;49.488;8.226;2023-04-24T14:58:36;17.10;92.70
18894;DHT22;9579;49.488;8.226;2023-04-24T15:01:23;16.80;92.30
18894;DHT22;9579;49.488;8.226;2023-04-24T15:04:12;16.90;92.20
18894;DHT22;9579;49.488;8.226;2023-04-24T15:06:59;17.00;91.80
18894;DHT22;9579;49.488;8.226;2023-04-24T15:09:46;16.70;91.10
18894;DHT22;9579;49.488;8.226;2023-04-24T15:12:34;16.90;91.30
18894;DHT22;9579;49.488;8.226;2023-04-24T15:15:21;17.00;90.80
18894;DHT22;9579;49.488;8.226;2023-04-24T15:18:08;17.60;89.30
18894;DHT22;9579;49.488;8.226;2023-04-24T15:20:58;17.80;88.20
18894;DHT22;9579;49.488;8.226;2023-04-24T15:23:45;17.80;87.20
18894;DHT22;9579;49.488;8.226;2023-04-24T15:26:32;17.60;88.50
18894;DHT22;9579;49.488;8.226;2023-04-24T15:29:19;17.60;88.00
18894;DHT22;9579;49.488;8.226;2023-04-24T15:32:06;17.60;89.20
18894;DHT22;9579;49.488;8.226;2023-04-24T15:34:53;17.60;89.40
18894;DHT22;9579;49.488;8.226;2023-04-24T15:37:42;17.60;88.10
18894;DHT22;9579;49.488;8.226;2023-04-24T15:40:29;18.20;89.60
18894;DHT22;9579;49.488;8.226;2023-04-24T15:43:16;17.30;88.70
18894;DHT22;9579;49.488;8.226;2023-04-24T15:46:03;17.00;89.40
18894;DHT22;9579;49.488;8.226;2023-04-24T15:48:50;17.00;89.80
18894;DHT22;9579;49.488;8.226;2023-04-24T15:51:37;16.50;90.40
18894;DHT22;9579;49.488;8.226;2023-04-24T15:54:25;16.40;90.10
18894;DHT22;9579;49.488;8.226;2023-04-24T15:57:12;16.30;90.00
18894;DHT22;9579;49.488;8.226;2023-04-24T16:00:00;16.80;88.40
18894;DHT22;9579;49.488;8.226;2023-04-24T16:02:47;16.50;88.60
18894;DHT22;9579;49.488;8.226;2023-04-24T16:05:36;16.70;89.80
18894;DHT22;9579;49.488;8.226;2023-04-24T16:08:23;16.70;87.40
18894;DHT22;9579;49.488;8.226;2023-04-24T16:11:11;17.40;88.10
18894;DHT22;9579;49.488;8.226;2023-04-24T16:13:58;16.90;87.50
18894;DHT22;9579;49.488;8.226;2023-04-24T16:16:45;17.00;85.30
18894;DHT22;9579;49.488;8.226;2023-04-24T16:19:32;17.00;85.60
18894;DHT22;9579;49.488;8.226;2023-04-24T16:22:19;16.90;85.20
18894;DHT22;9579;49.488;8.226;2023-04-24T16:25:07;16.60;85.50
18894;DHT22;9579;49.488;8.226;2023-04-24T16:27:56;16.50;85.90
18894;DHT22;9579;49.488;8.226;2023-04-24T16:30:43;16.60;87.30
18894;DHT22;9579;49.488;8.226;2023-04-24T16:33:31;16.60;86.40
18894;DHT22;9579;49.488;8.226;2023-04-24T16:36:19;16.40;87.20
18894;DHT22;9579;49.488;8.226;2023-04-24T16:39:06;16.30;87.40
18894;DHT22;9579;49.488;8.226;2023-04-24T16:41:55;16.30;87.10
18894;DHT22;9579;49.488;8.226;2023-04-24T16:44:44;16.10;88.00
18894;DHT22;9579;49.488;8.226;2023-04-24T16:47:31;16.00;88.70
18894;DHT22;9579;49.488;8.226;2023-04-24T16:50:18;15.90;88.90
18894;DHT22;9579;49.488;8.226;2023-04-24T16:53:05;15.90;89.00
18894;DHT22;9579;49.488;8.226;2023-04-24T16:55:52;15.90;89.20
18894;DHT22;9579;49.488;8.226;2023-04-24T16:58:39;15.80;90.10
18894;DHT22;9579;49.488;8.226;2023-04-24T17:01:28;15.70;90.10
18894;DHT22;9579;49.488;8.226;2023-04-24T17:04:15;15.80;90.00
18894;DHT22;9579;49.488;8.226;2023-04-24T17:07:02;15.70;89.70
18894;DHT22;9579;49.488;8.226;2023-04-24T17:09:49;15.70;89.80
18894;DHT22;9579;49.488;8.226;2023-04-24T17:12:36;15.70;90.30
18894;DHT22;9579;49.488;8.226;2023-04-24T17:15:23;15.60;90.50
18894;DHT22;9579;49.488;8.226;2023-04-24T17:18:12;15.60;90.80
18894;DHT22;9579;49.488;8.226;2023-04-24T17:20:59;15.60;90.70
18894;DHT22;9579;49.488;8.226;2023-04-24T17:23:46;15.50;90.60
18894;DHT22;9579;49.488;8.226;2023-04-24T17:26:33;15.50;90.80
18894;DHT22;9579;49.488;8.226;2023-04-24T17:29:20;15.60;90.10
18894;DHT22;9579;49.488;8.226;2023-04-24T17:32:07;15.40;90.20
18894;DHT22;9579;49.488;8.226;2023-04-24T17:34:55;15.30;90.70
18894;DHT22;9579;49.488;8.226;2023-04-24T17:37:42;15.20;91.10
18894;DHT22;9579;49.488;8.226;2023-04-24T17:40:30;15.20;91.30
18894;DHT22;9579;49.488;8.226;2023-04-24T17:43:17;15.20;91.30
18894;DHT22;9579;49.488;8.226;2023-04-24T17:46:12;15.10;91.30
18894;DHT22;9579;49.488;8.226;2023-04-24T17:49:00;15.10;91.30
18894;DHT22;9579;49.488;8.226;2023-04-24T17:51:49;15.10;91.40
18894;DHT22;9579;49.488;8.226;2023-04-24T17:54:36;15.00;91.60
18894;DHT22;9579;49.488;8.226;2023-04-24T17:57:23;15.00;91.10
18894;DHT22;9579;49.488;8.226;2023-04-24T18:00:11;15.10;91.30
18894;DHT22;9579;49.488;8.226;2023-04-24T18:03:05;15.00;91.30
18894;DHT22;9579;49.488;8.226;2023-04-24T18:05:59;14.90;91.40
18894;DHT22;9579;49.488;8.226;2023-04-24T18:08:56;14.80;91.50
18894;DHT22;9579;49.488;8.226;2023-04-24T18:11:49;14.70;91.60
18894;DHT22;9579;49.488;8.226;2023-04-24T18:14:39;14.70;91.80
18894;DHT22;9579;49.488;8.226;2023-04-24T18:17:29;14.70;92.00
18894;DHT22;9579;49.488;8.226;2023-04-24T18:20:28;14.60;92.10
18894;DHT22;9579;49.488;8.226;2023-04-24T18:23:24;14.60;92.50
18894;DHT22;9579;49.488;8.226;2023-04-24T18:26:13;14.60;92.30
18894;DHT22;9579;49.488;8.226;2023-04-24T18:29:05;14.60;92.60
18894;DHT22;9579;49.488;8.226;2023-04-24T18:31:54;14.50;91.80
18894;DHT22;9579;49.488;8.226;2023-04-24T18:34:45;14.50;91.90
18894;DHT22;9579;49.488;8.226;2023-04-24T18:37:32;14.50;92.40
18894;DHT22;9579;49.488;8.226;2023-04-24T18:40:20;14.40;92.40
18894;DHT22;9579;49.488;8.226;2023-04-24T18:43:09;14.50;92.70
18894;DHT22;9579;49.488;8.226;2023-04-24T18:46:04;14.50;92.80
18894;DHT22;9579;49.488;8.226;2023-04-24T18:48:52;14.60;92.80
18894;DHT22;9579;49.488;8.226;2023-04-24T18:51:48;14.60;92.70
18894;DHT22;9579;49.488;8.226;2023-04-24T18:54:37;14.60;93.10
18894;DHT22;9579;49.488;8.226;2023-04-24T18:57:25;14.60;93.00
18894;DHT22;9579;49.488;8.226;2023-04-24T19:00:14;14.70;93.30
18894;DHT22;9579;49.488;8.226;2023-04-24T19:03:02;14.60;93.10
18894;DHT22;9579;49.488;8.226;2023-04-24T19:05:49;14.50;92.40
18894;DHT22;9579;49.488;8.226;2023-04-24T19:08:36;14.50;92.70
18894;DHT22;9579;49.488;8.226;2023-04-24T19:11:24;14.40;92.90
18894;DHT22;9579;49.488;8.226;2023-04-24T19:14:11;14.40;93.40
18894;DHT22;9579;49.488;8.226;2023-04-24T19:16:59;14.30;93.70
18894;DHT22;9579;49.488;8.226;2023-04-24T19:19:46;14.20;93.60
18894;DHT22;9579;49.488;8.226;2023-04-24T19:22:34;14.10;94.20
18894;DHT22;9579;49.488;8.226;2023-04-24T19:25:21;14.20;94.10
18894;DHT22;9579;49.488;8.226;2023-04-24T19:28:09;14.10;94.50
18894;DHT22;9579;49.488;8.226;2023-04-24T19:30:56;14.00;94.80
18894;DHT22;9579;49.488;8.226;2023-04-24T19:33:44;13.90;94.80
18894;DHT22;9579;49.488;8.226;2023-04-24T19:36:33;13.90;95.20
18894;DHT22;9579;49.488;8.226;2023-04-24T19:39:20;13.80;95.30
18894;DHT22;9579;49.488;8.226;2023-04-24T19:42:07;13.90;95.30
18894;DHT22;9579;49.488;8.226;2023-04-24T19:44:54;13.90;95.30
18894;DHT22;9579;49.488;8.226;2023-04-24T19:47:41;13.90;95.50
18894;DHT22;9579;49.488;8.226;2023-04-24T19:50:30;13.80;95.70
18894;DHT22;9579;49.488;8.226;2023-04-24T19:53:17;13.80;95.50
18894;DHT22;9579;49.488;8.226;2023-04-24T19:56:04;13.80;95.60
18894;DHT22;9579;49.488;8.226;2023-04-24T19:58:53;13.70;95.60
18894;DHT22;9579;49.488;8.226;2023-04-24T20:01:41;13.70;95.80
18894;DHT22;9579;49.488;8.226;2023-04-24T20:04:28;13.60;96.00
18894;DHT22;9579;49.488;8.226;2023-04-24T20:07:16;13.60;96.00
18894;DHT22;9579;49.488;8.226;2023-04-24T20:10:04;13.60;96.00
18894;DHT22;9579;49.488;8.226;2023-04-24T20:12:51;13.60;96.10
18894;DHT22;9579;49.488;8.226;2023-04-24T20:15:38;13.50;95.60
18894;DHT22;9579;49.488;8.226;2023-04-24T20:18:25;13.50;95.60
18894;DHT22;9579;49.488;8.226;2023-04-24T20:21:12;13.40;96.00
18894;DHT22;9579;49.488;8.226;2023-04-24T20:24:01;13.40;95.60
18894;DHT22;9579;49.488;8.226;2023-04-24T20:26:49;13.30;96.00
18894;DHT22;9579;49.488;8.226;2023-04-24T20:29:36;13.30;96.20
18894;DHT22;9579;49.488;8.226;2023-04-24T20:32:23;13.40;96.00
18894;DHT22;9579;49.488;8.226;2023-04-24T20:35:10;13.40;96.50
18894;DHT22;9579;49.488;8.226;2023-04-24T20:37:57;13.40;96.10
18894;DHT22;9579;49.488;8.226;2023-04-24T20:40:47;13.30;96.10
18894;DHT22;9579;49.488;8.226;2023-04-24T20:43:35;13.30;96.40
18894;DHT22;9579;49.488;8.226;2023-04-24T20:46:22;13.30;96.60
18894;DHT22;9579;49.488;8.226;2023-04-24T20:49:09;13.40;96.80
18894;DHT22;9579;49.488;8.226;2023-04-24T20:51:56;13.40;96.20
18894;DHT22;9579;49.488;8.226;2023-04-24T20:54:44;13.50;96.00
18894;DHT22;9579;49.488;8.226;2023-04-24T20:57:33;13.50;95.80
18894;DHT22;9579;49.488;8.226;2023-04-24T21:00:20;13.40;95.90
18894;DHT22;9579;49.488;8.226;2023-04-24T21:03:07;13.40;95.80
18894;DHT22;9579;49.488;8.226;2023-04-24T21:05:54;13.30;95.90
18894;DHT22;9579;49.488;8.226;2023-04-24T21:08:41;13.30;96.10
18894;DHT22;9579;49.488;8.226;2023-04-24T21:11:28;13.20;96.40
18894;DHT22;9579;49.488;8.226;2023-04-24T21:14:17;13.20;96.80
18894;DHT22;9579;49.488;8.226;2023-04-24T21:17:04;13.10;96.90
18894;DHT22;9579;49.488;8.226;2023-04-24T21:19:51;13.10;97.00
18894;DHT22;9579;49.488;8.226;2023-04-24T21:22:38;13.10;97.00
18894;DHT22;9579;49.488;8.226;2023-04-24T21:25:25;13.00;97.40
18894;DHT22;9579;49.488;8.226;2023-04-24T21:28:13;12.90;97.60
18894;DHT22;9579;49.488;8.226;2023-04-24T21:31:01;12.80;97.70
18894;DHT22;9579;49.488;8.226;2023-04-24T21:33:48;12.70;97.70
18894;DHT22;9579;49.488;8.226;2023-04-24T21:36:35;12.70;98.10
18894;DHT22;9579;49.488;8.226;2023-04-24T21:39:22;12.70;98.30
18894;DHT22;9579;49.488;8.226;2023-04-24T21:42:09;12.60;98.40
18894;DHT22;9579;49.488;8.226;2023-04-24T21:44:56;12.60;98.40
18894;DHT22;9579;49.488;8.226;2023-04-24T21:47:45;12.50;99.40
18894;DHT22;9579;49.488;8.226;2023-04-24T21:50:32;12.60;99.40
18894;DHT22;9579;49.488;8.226;2023-04-24T21:53:19;12.60;99.40
18894;DHT22;9579;49.488;8.226;2023-04-24T21:56:09;12.70;99.20
18894;DHT22;9579;49.488;8.226;2023-04-24T21:58:57;12.70;99.50
18894;DHT22;9579;49.488;8.226;2023-04-24T22:01:44;12.80;99.80
18894;DHT22;9579;49.488;8.226;2023-04-24T22:04:32;12.80;99.40
18894;DHT22;9579;49.488;8.226;2023-04-24T22:07:20;12.80;99.20
18894;DHT22;9579;49.488;8.226;2023-04-24T22:10:07;12.80;99.00
